Wetterdaten: aktuell Dienstag, 25.06.2019 06:19
Datum Zeit Temp. A. Feuchte A. Luftdruck Regen Wind Richtung Richtung Taupunkt Windchill Windben Empfang
25.06.2019 06:19 18,1 C 81 % 1019,5 hPa 0,0 l/m 1,6 km/h (1 Bft) N-NO 22 14,8 C 18,1 C 3,2 km/h (1 Bft) 100,00 %
25.06.2019 06:18 18,0 C 81 % 1019,5 hPa 0,0 l/m 0,0 km/h (0 Bft) N 0 14,7 C 18,0 C 0,0 km/h (0 Bft) 91,30 %
25.06.2019 06:17 17,9 C 81 % 1019,5 hPa 0,0 l/m 0,0 km/h (0 Bft) N 0 14,6 C 17,9 C 0,0 km/h (0 Bft) 100,00 %
25.06.2019 06:16 17,9 C 81 % 1019,5 hPa 0,0 l/m 0,0 km/h (0 Bft) O-NO 67 14,6 C 17,9 C 1,6 km/h (1 Bft) 95,65 %
25.06.2019 06:15 17,8 C 81 % 1019,5 hPa 0,0 l/m 0,0 km/h (0 Bft) O-NO 67 14,5 C 17,8 C 3,2 km/h (1 Bft) 100,00 %
25.06.2019 06:14 17,8 C 81 % 1019,5 hPa 0,0 l/m 1,6 km/h (1 Bft) N-NO 22 14,5 C 17,8 C 3,2 km/h (1 Bft) 95,65 %
25.06.2019 06:13 17,7 C 81 % 1019,5 hPa 0,0 l/m 1,6 km/h (1 Bft) N-NO 22 14,4 C 17,7 C 3,2 km/h (1 Bft) 100,00 %
25.06.2019 06:12 17,7 C 81 % 1019,6 hPa 0,0 l/m 0,0 km/h (0 Bft) N 0 14,4 C 17,7 C 0,0 km/h (0 Bft) 100,00 %
25.06.2019 06:11 17,7 C 81 % 1019,5 hPa 0,0 l/m 0,0 km/h (0 Bft) N-NO 22 14,4 C 17,7 C 1,6 km/h (1 Bft) 95,65 %
25.06.2019 06:10 17,7 C 81 % 1019,6 hPa 0,0 l/m 0,0 km/h (0 Bft) N-NO 22 14,4 C 17,7 C 1,6 km/h (1 Bft) 100,00 %
25.06.2019 06:09 17,6 C 81 % 1019,6 hPa 0,0 l/m 1,6 km/h (1 Bft) SO 135 14,3 C 17,6 C 1,6 km/h (1 Bft) 91,30 %
25.06.2019 06:08 17,7 C 82 % 1019,5 hPa 0,0 l/m 0,0 km/h (0 Bft) S-SO 157 14,6 C 17,7 C 1,6 km/h (1 Bft) 95,65 %
25.06.2019 06:07 17,6 C 81 % 1019,5 hPa 0,0 l/m 0,0 km/h (0 Bft) N 0 14,3 C 17,6 C 0,0 km/h (0 Bft) 100,00 %
25.06.2019 06:06 17,7 C 81 % 1019,5 hPa 0,0 l/m 0,0 km/h (0 Bft) N 0 14,4 C 17,7 C 0,0 km/h (0 Bft) 95,65 %
25.06.2019 06:05 17,7 C 81 % 1019,5 hPa 0,0 l/m 0,0 km/h (0 Bft) N 0 14,4 C 17,7 C 0,0 km/h (0 Bft) 100,00 %
25.06.2019 06:04 17,7 C 81 % 1019,5 hPa 0,0 l/m 0,0 km/h (0 Bft) N 0 14,4 C 17,7 C 0,0 km/h (0 Bft) 91,30 %
25.06.2019 06:03 17,7 C 81 % 1019,5 hPa 0,0 l/m 0,0 km/h (0 Bft) N 0 14,4 C 17,7 C 0,0 km/h (0 Bft) 100,00 %
25.06.2019 06:02 17,7 C 81 % 1019,5 hPa 0,0 l/m 1,6 km/h (1 Bft) O-SO 112 14,4 C 17,7 C 3,2 km/h (1 Bft) 100,00 %
25.06.2019 06:01 17,7 C 81 % 1019,5 hPa 0,0 l/m 0,0 km/h (0 Bft) N 0 14,4 C 17,7 C 0,0 km/h (0 Bft) 91,30 %
25.06.2019 06:00 17,7 C 81 % 1019,5 hPa 0,0 l/m 0,0 km/h (0 Bft) N 0 14,4 C 17,7 C 0,0 km/h (0 Bft) 100,00 %
25.06.2019 05:59 17,7 C 81 % 1019,5 hPa 0,0 l/m 0,0 km/h (0 Bft) O-NO 67 14,4 C 17,7 C 1,6 km/h (1 Bft) 91,30 %
25.06.2019 05:58 17,7 C 81 % 1019,5 hPa 0,0 l/m 0,0 km/h (0 Bft) O-NO 67 14,4 C 17,7 C 1,6 km/h (1 Bft) 100,00 %
25.06.2019 05:57 17,6 C 81 % 1019,5 hPa 0,0 l/m 0,0 km/h (0 Bft) O-NO 67 14,3 C 17,6 C 1,6 km/h (1 Bft) 91,30 %
25.06.2019 05:56 17,7 C 81 % 1019,6 hPa 0,0 l/m 0,0 km/h (0 Bft) N 0 14,4 C 17,7 C 0,0 km/h (0 Bft) 91,30 %
25.06.2019 05:55 17,7 C 81 % 1019,5 hPa 0,0 l/m 1,6 km/h (1 Bft) O-SO 112 14,4 C 17,7 C 3,2 km/h (1 Bft) 100,00 %
25.06.2019 05:54 17,7 C 81 % 1019,6 hPa 0,0 l/m 0,0 km/h (0 Bft) SO 135 14,4 C 17,7 C 1,6 km/h (1 Bft) 91,30 %
25.06.2019 05:53 17,7 C 81 % 1019,6 hPa 0,0 l/m 0,0 km/h (0 Bft) N 0 14,4 C 17,7 C 0,0 km/h (0 Bft) 100,00 %
25.06.2019 05:52 17,7 C 81 % 1019,6 hPa 0,0 l/m 1,6 km/h (1 Bft) SO 135 14,4 C 17,7 C 3,2 km/h (1 Bft) 95,65 %
25.06.2019 05:51 17,6 C 81 % 1019,5 hPa 0,0 l/m 4,8 km/h (1 Bft) SO 135 14,3 C 17,6 C 6,4 km/h (2 Bft) 95,65 %
25.06.2019 05:50 17,6 C 81 % 1019,6 hPa 0,0 l/m 1,6 km/h (1 Bft) O 90 14,3 C 17,6 C 6,4 km/h (2 Bft) 100,00 %
25.06.2019 05:49 17,6 C 81 % 1019,6 hPa 0,0 l/m 1,6 km/h (1 Bft) O 90 14,3 C 17,6 C 4,8 km/h (1 Bft) 91,30 %
25.06.2019 05:48 17,6 C 81 % 1019,5 hPa 0,0 l/m 1,6 km/h (1 Bft) O 90 14,3 C 17,6 C 4,8 km/h (1 Bft) 100,00 %
25.06.2019 05:47 17,6 C 81 % 1019,5 hPa 0,0 l/m 1,6 km/h (1 Bft) O-SO 112 14,3 C 17,6 C 1,6 km/h (1 Bft) 100,00 %
25.06.2019 05:46 17,6 C 81 % 1019,5 hPa 0,0 l/m 0,0 km/h (0 Bft) O 90 14,3 C 17,6 C 1,6 km/h (1 Bft) 100,00 %
25.06.2019 05:45 17,6 C 81 % 1019,5 hPa 0,0 l/m 3,2 km/h (1 Bft) SO 135 14,3 C 17,6 C 4,8 km/h (1 Bft) 91,30 %
25.06.2019 05:44 17,6 C 81 % 1019,5 hPa 0,0 l/m 0,0 km/h (0 Bft) SO 135 14,3 C 17,6 C 1,6 km/h (1 Bft) 95,65 %
25.06.2019 05:43 17,7 C 81 % 1019,5 hPa 0,0 l/m 0,0 km/h (0 Bft) N 0 14,4 C 17,7 C 0,0 km/h (0 Bft) 95,65 %
25.06.2019 05:42 17,7 C 81 % 1019,5 hPa 0,0 l/m 0,0 km/h (0 Bft) N 0 14,4 C 17,7 C 0,0 km/h (0 Bft) 95,65 %
25.06.2019 05:41 17,7 C 81 % 1019,6 hPa 0,0 l/m 0,0 km/h (0 Bft) N 0 14,4 C 17,7 C 0,0 km/h (0 Bft) 100,00 %
25.06.2019 05:40 17,7 C 81 % 1019,6 hPa 0,0 l/m 0,0 km/h (0 Bft) N 0 14,4 C 17,7 C 0,0 km/h (0 Bft) 100,00 %
25.06.2019 05:39 17,7 C 81 % 1019,6 hPa 0,0 l/m 0,0 km/h (0 Bft) N 0 14,4 C 17,7 C 0,0 km/h (0 Bft) 91,30 %
25.06.2019 05:38 17,7 C 81 % 1019,6 hPa 0,0 l/m 0,0 km/h (0 Bft) S-SO 157 14,4 C 17,7 C 1,6 km/h (1 Bft) 100,00 %
25.06.2019 05:37 17,7 C 81 % 1019,5 hPa 0,0 l/m 1,6 km/h (1 Bft) O-SO 112 14,4 C 17,7 C 4,8 km/h (1 Bft) 86,96 %
25.06.2019 05:36 17,6 C 81 % 1019,5 hPa 0,0 l/m 4,8 km/h (1 Bft) O 90 14,3 C 17,6 C 8,0 km/h (2 Bft) 100,00 %
25.06.2019 05:35 17,6 C 81 % 1019,6 hPa 0,0 l/m 3,2 km/h (1 Bft) O-SO 112 14,3 C 17,6 C 6,4 km/h (2 Bft) 91,30 %
25.06.2019 05:34 17,6 C 81 % 1019,5 hPa 0,0 l/m 0,0 km/h (0 Bft) N 0 14,3 C 17,6 C 0,0 km/h (0 Bft) 100,00 %
25.06.2019 05:33 17,6 C 81 % 1019,6 hPa 0,0 l/m 1,6 km/h (1 Bft) O 90 14,3 C 17,6 C 9,7 km/h (2 Bft) 95,65 %
25.06.2019 05:32 17,6 C 81 % 1019,5 hPa 0,0 l/m 4,8 km/h (1 Bft) O-SO 112 14,3 C 17,6 C 9,7 km/h (2 Bft) 95,65 %
25.06.2019 05:31 17,6 C 81 % 1019,5 hPa 0,0 l/m 0,0 km/h (0 Bft) N 0 14,3 C 17,6 C 0,0 km/h (0 Bft) 100,00 %
25.06.2019 05:30 17,6 C 81 % 1019,5 hPa 0,0 l/m 0,0 km/h (0 Bft) N 0 14,3 C 17,6 C 0,0 km/h (0 Bft) 95,65 %
25.06.2019 05:29 17,6 C 81 % 1019,5 hPa 0,0 l/m 0,0 km/h (0 Bft) N 0 14,3 C 17,6 C 0,0 km/h (0 Bft) 100,00 %
25.06.2019 05:28 17,6 C 81 % 1019,5 hPa 0,0 l/m 0,0 km/h (0 Bft) N 0 14,3 C 17,6 C 0,0 km/h (0 Bft) 95,65 %
25.06.2019 05:27 17,6 C 81 % 1019,5 hPa 0,0 l/m 0,0 km/h (0 Bft) N 0 14,3 C 17,6 C 0,0 km/h (0 Bft) 95,65 %
25.06.2019 05:26 17,6 C 81 % 1019,5 hPa 0,0 l/m 0,0 km/h (0 Bft) N 0 14,3 C 17,6 C 0,0 km/h (0 Bft) 100,00 %
25.06.2019 05:25 17,6 C 81 % 1019,5 hPa 0,0 l/m 1,6 km/h (1 Bft) N 360 14,3 C 17,6 C 4,8 km/h (1 Bft) 100,00 %
25.06.2019 05:24 17,6 C 81 % 1019,5 hPa 0,0 l/m 4,8 km/h (1 Bft) O-SO 112 14,3 C 17,6 C 6,4 km/h (2 Bft) 95,65 %
25.06.2019 05:23 17,6 C 81 % 1019,5 hPa 0,0 l/m 1,6 km/h (1 Bft) NO 45 14,3 C 17,6 C 3,2 km/h (1 Bft) 91,30 %
25.06.2019 05:22 17,5 C 81 % 1019,5 hPa 0,0 l/m 0,0 km/h (0 Bft) N 360 14,2 C 17,5 C 3,2 km/h (1 Bft) 95,65 %
25.06.2019 05:21 17,5 C 81 % 1019,4 hPa 0,0 l/m 0,0 km/h (0 Bft) N 0 14,2 C 17,5 C 0,0 km/h (0 Bft) 100,00 %
25.06.2019 05:20 17,6 C 81 % 1019,5 hPa 0,0 l/m 0,0 km/h (0 Bft) N 0 14,3 C 17,6 C 0,0 km/h (0 Bft) 95,65 %
25.06.2019 05:19 17,5 C 81 % 1019,4 hPa 0,0 l/m 0,0 km/h (0 Bft) N 0 14,2 C 17,5 C 0,0 km/h (0 Bft) 100,00 %
25.06.2019 05:18 17,5 C 81 % 1019,5 hPa 0,0 l/m 0,0 km/h (0 Bft) W-NW 292 14,2 C 17,5 C 1,6 km/h (1 Bft) 95,65 %
25.06.2019 05:17 17,5 C 81 % 1019,4 hPa 0,0 l/m 0,0 km/h (0 Bft) W-NW 292 14,2 C 17,5 C 1,6 km/h (1 Bft) 95,65 %
25.06.2019 05:16 17,5 C 81 % 1019,4 hPa 0,0 l/m 0,0 km/h (0 Bft) N 0 14,2 C 17,5 C 0,0 km/h (0 Bft) 91,30 %
25.06.2019 05:15 17,5 C 81 % 1019,4 hPa 0,0 l/m 0,0 km/h (0 Bft) W-SW 247 14,2 C 17,5 C 1,6 km/h (1 Bft) 95,65 %
25.06.2019 05:14 17,6 C 81 % 1019,5 hPa 0,0 l/m 0,0 km/h (0 Bft) W 270 14,3 C 17,6 C 1,6 km/h (1 Bft) 95,65 %
25.06.2019 05:13 17,5 C 81 % 1019,4 hPa 0,0 l/m 1,6 km/h (1 Bft) SO 135 14,2 C 17,5 C 3,2 km/h (1 Bft) 95,65 %
25.06.2019 05:12 17,6 C 81 % 1019,4 hPa 0,0 l/m 0,0 km/h (0 Bft) W-SW 247 14,3 C 17,6 C 1,6 km/h (1 Bft) 95,65 %
25.06.2019 05:11 17,6 C 81 % 1019,5 hPa 0,0 l/m 0,0 km/h (0 Bft) N 0 14,3 C 17,6 C 0,0 km/h (0 Bft) 91,30 %
25.06.2019 05:10 17,6 C 81 % 1019,4 hPa 0,0 l/m 0,0 km/h (0 Bft) N 0 14,3 C 17,6 C 0,0 km/h (0 Bft) 100,00 %
25.06.2019 05:09 17,6 C 81 % 1019,4 hPa 0,0 l/m 0,0 km/h (0 Bft) O-NO 67 14,3 C 17,6 C 1,6 km/h (1 Bft) 95,65 %
25.06.2019 05:08 17,6 C 81 % 1019,5 hPa 0,0 l/m 0,0 km/h (0 Bft) O 90 14,3 C 17,6 C 1,6 km/h (1 Bft) 95,65 %
25.06.2019 05:07 17,6 C 81 % 1019,4 hPa 0,0 l/m 1,6 km/h (1 Bft) S 180 14,3 C 17,6 C 3,2 km/h (1 Bft) 100,00 %
25.06.2019 05:06 17,6 C 81 % 1019,4 hPa 0,0 l/m 1,6 km/h (1 Bft) W-NW 292 14,3 C 17,6 C 1,6 km/h (1 Bft) 91,30 %
25.06.2019 05:05 17,6 C 81 % 1019,5 hPa 0,0 l/m 0,0 km/h (0 Bft) W 270 14,3 C 17,6 C 1,6 km/h (1 Bft) 95,65 %
25.06.2019 05:04 17,6 C 81 % 1019,4 hPa 0,0 l/m 0,0 km/h (0 Bft) N 0 14,3 C 17,6 C 0,0 km/h (0 Bft) 91,30 %
25.06.2019 05:03 17,6 C 81 % 1019,4 hPa 0,0 l/m 0,0 km/h (0 Bft) N 0 14,3 C 17,6 C 0,0 km/h (0 Bft) 91,30 %
25.06.2019 05:02 17,6 C 80 % 1019,4 hPa 0,0 l/m 0,0 km/h (0 Bft) N 0 14,1 C 17,6 C 0,0 km/h (0 Bft) 100,00 %
25.06.2019 05:01 17,7 C 80 % 1019,5 hPa 0,0 l/m 1,6 km/h (1 Bft) SW 225 14,2 C 17,7 C 3,2 km/h (1 Bft) 91,30 %
25.06.2019 05:00 17,7 C 80 % 1019,5 hPa 0,0 l/m 0,0 km/h (0 Bft) W-NW 292 14,2 C 17,7 C 1,6 km/h (1 Bft) 100,00 %
25.06.2019 04:59 17,6 C 81 % 1019,4 hPa 0,0 l/m 0,0 km/h (0 Bft) SW 225 14,3 C 17,6 C 1,6 km/h (1 Bft) 91,30 %
25.06.2019 04:58 17,6 C 81 % 1019,5 hPa 0,0 l/m 3,2 km/h (1 Bft) O-SO 112 14,3 C 17,6 C 4,8 km/h (1 Bft) 95,65 %
25.06.2019 04:57 17,6 C 81 % 1019,5 hPa 0,0 l/m 1,6 km/h (1 Bft) W-SW 247 14,3 C 17,6 C 3,2 km/h (1 Bft) 95,65 %
25.06.2019 04:56 17,6 C 81 % 1019,5 hPa 0,0 l/m 0,0 km/h (0 Bft) NO 45 14,3 C 17,6 C 1,6 km/h (1 Bft) 91,30 %
25.06.2019 04:55 17,6 C 81 % 1019,6 hPa 0,0 l/m 1,6 km/h (1 Bft) W 270 14,3 C 17,6 C 3,2 km/h (1 Bft) 95,65 %
25.06.2019 04:54 17,6 C 81 % 1019,6 hPa 0,0 l/m 0,0 km/h (0 Bft) W-SW 247 14,3 C 17,6 C 1,6 km/h (1 Bft) 95,65 %
25.06.2019 04:53 17,6 C 81 % 1019,5 hPa 0,0 l/m 0,0 km/h (0 Bft) O-SO 112 14,3 C 17,6 C 1,6 km/h (1 Bft) 95,65 %
25.06.2019 04:52 17,6 C 81 % 1019,6 hPa 0,0 l/m 0,0 km/h (0 Bft) O-SO 112 14,3 C 17,6 C 1,6 km/h (1 Bft) 95,65 %
25.06.2019 04:51 17,6 C 81 % 1019,5 hPa 0,0 l/m 0,0 km/h (0 Bft) SW 225 14,3 C 17,6 C 1,6 km/h (1 Bft) 91,30 %
25.06.2019 04:50 17,6 C 81 % 1019,6 hPa 0,0 l/m 0,0 km/h (0 Bft) S-SW 202 14,3 C 17,6 C 1,6 km/h (1 Bft) 95,65 %
25.06.2019 04:49 17,6 C 81 % 1019,5 hPa 0,0 l/m 0,0 km/h (0 Bft) S-SO 157 14,3 C 17,6 C 3,2 km/h (1 Bft) 100,00 %
25.06.2019 04:48 17,6 C 81 % 1019,5 hPa 0,0 l/m 3,2 km/h (1 Bft) S 180 14,3 C 17,6 C 6,4 km/h (2 Bft) 100,00 %
25.06.2019 04:47 17,5 C 81 % 1019,6 hPa 0,0 l/m 0,0 km/h (0 Bft) O-SO 112 14,2 C 17,5 C 1,6 km/h (1 Bft) 100,00 %
25.06.2019 04:46 17,5 C 81 % 1019,5 hPa 0,0 l/m 0,0 km/h (0 Bft) N 0 14,2 C 17,5 C 0,0 km/h (0 Bft) 100,00 %
25.06.2019 04:45 17,6 C 81 % 1019,5 hPa 0,0 l/m 0,0 km/h (0 Bft) N-NO 22 14,3 C 17,6 C 1,6 km/h (1 Bft) 100,00 %
25.06.2019 04:44 17,6 C 81 % 1019,6 hPa 0,0 l/m 0,0 km/h (0 Bft) N-NO 22 14,3 C 17,6 C 1,6 km/h (1 Bft) 91,30 %
25.06.2019 04:43 17,6 C 81 % 1019,5 hPa 0,0 l/m 0,0 km/h (0 Bft) NO 45 14,3 C 17,6 C 3,2 km/h (1 Bft) 100,00 %
25.06.2019 04:42 17,6 C 81 % 1019,4 hPa 0,0 l/m 1,6 km/h (1 Bft) W-NW 292 14,3 C 17,6 C 3,2 km/h (1 Bft) 100,00 %
25.06.2019 04:41 17,6 C 81 % 1019,5 hPa 0,0 l/m 1,6 km/h (1 Bft) N-NW 337 14,3 C 17,6 C 1,6 km/h (1 Bft) 100,00 %
25.06.2019 04:40 17,7 C 80 % 1019,5 hPa 0,0 l/m 0,0 km/h (0 Bft) N 0 14,2 C 17,7 C 0,0 km/h (0 Bft) 91,30 %
25.06.2019 04:39 17,7 C 80 % 1019,5 hPa 0,0 l/m 0,0 km/h (0 Bft) N 0 14,2 C 17,7 C 0,0 km/h (0 Bft) 100,00 %
25.06.2019 04:38 17,7 C 80 % 1019,5 hPa 0,0 l/m 0,0 km/h (0 Bft) N 0 14,2 C 17,7 C 0,0 km/h (0 Bft) 100,00 %
25.06.2019 04:37 17,7 C 80 % 1019,6 hPa 0,0 l/m 0,0 km/h (0 Bft) N-NO 22 14,2 C 17,7 C 1,6 km/h (1 Bft) 95,65 %
25.06.2019 04:36 17,7 C 80 % 1019,6 hPa 0,0 l/m 1,6 km/h (1 Bft) O 90 14,2 C 17,7 C 4,8 km/h (1 Bft) 95,65 %
25.06.2019 04:35 17,7 C 80 % 1019,5 hPa 0,0 l/m 0,0 km/h (0 Bft) W 270 14,2 C 17,7 C 3,2 km/h (1 Bft) 91,30 %
25.06.2019 04:34 17,7 C 80 % 1019,5 hPa 0,0 l/m 0,0 km/h (0 Bft) NO 45 14,2 C 17,7 C 1,6 km/h (1 Bft) 95,65 %
25.06.2019 04:33 17,7 C 80 % 1019,5 hPa 0,0 l/m 0,0 km/h (0 Bft) N 0 14,2 C 17,7 C 0,0 km/h (0 Bft) 100,00 %
25.06.2019 04:32 17,7 C 80 % 1019,6 hPa 0,0 l/m 0,0 km/h (0 Bft) W-SW 247 14,2 C 17,7 C 1,6 km/h (1 Bft) 91,30 %
25.06.2019 04:31 17,7 C 80 % 1019,6 hPa 0,0 l/m 0,0 km/h (0 Bft) N 0 14,2 C 17,7 C 0,0 km/h (0 Bft) 100,00 %
25.06.2019 04:30 17,7 C 80 % 1019,5 hPa 0,0 l/m 0,0 km/h (0 Bft) O 90 14,2 C 17,7 C 1,6 km/h (1 Bft) 95,65 %
25.06.2019 04:29 17,7 C 80 % 1019,5 hPa 0,0 l/m 1,6 km/h (1 Bft) O 90 14,2 C 17,7 C 4,8 km/h (1 Bft) 100,00 %
25.06.2019 04:28 17,7 C 80 % 1019,6 hPa 0,0 l/m 3,2 km/h (1 Bft) SO 135 14,2 C 17,7 C 6,4 km/h (2 Bft) 91,30 %
25.06.2019 04:27 17,7 C 80 % 1019,6 hPa 0,0 l/m 0,0 km/h (0 Bft) N 0 14,2 C 17,7 C 0,0 km/h (0 Bft) 91,30 %
25.06.2019 04:26 17,7 C 80 % 1019,6 hPa 0,0 l/m 0,0 km/h (0 Bft) N 0 14,2 C 17,7 C 0,0 km/h (0 Bft) 100,00 %
25.06.2019 04:25 17,7 C 80 % 1019,6 hPa 0,0 l/m 1,6 km/h (1 Bft) SO 135 14,2 C 17,7 C 3,2 km/h (1 Bft) 91,30 %
25.06.2019 04:24 17,7 C 80 % 1019,7 hPa 0,0 l/m 0,0 km/h (0 Bft) N 0 14,2 C 17,7 C 0,0 km/h (0 Bft) 100,00 %
25.06.2019 04:23 17,7 C 80 % 1019,6 hPa 0,0 l/m 0,0 km/h (0 Bft) N 0 14,2 C 17,7 C 0,0 km/h (0 Bft) 95,65 %
25.06.2019 04:22 17,8 C 80 % 1019,5 hPa 0,0 l/m 0,0 km/h (0 Bft) N 0 14,3 C 17,8 C 0,0 km/h (0 Bft) 95,65 %
25.06.2019 04:21 17,8 C 80 % 1019,5 hPa 0,0 l/m 0,0 km/h (0 Bft) N 360 14,3 C 17,8 C 1,6 km/h (1 Bft) 95,65 %
25.06.2019 04:20 17,8 C 80 % 1019,6 hPa 0,0 l/m 0,0 km/h (0 Bft) N 360 14,3 C 17,8 C 1,6 km/h (1 Bft) 95,65 %
25.06.2019 04:19 17,8 C 80 % 1019,5 hPa 0,0 l/m 0,0 km/h (0 Bft) N 0 14,3 C 17,8 C 0,0 km/h (0 Bft) 100,00 %
25.06.2019 04:18 17,9 C 80 % 1019,7 hPa 0,0 l/m 1,6 km/h (1 Bft) N-NO 22 14,4 C 17,9 C 3,2 km/h (1 Bft) 95,65 %
25.06.2019 04:17 17,9 C 80 % 1019,5 hPa 0,0 l/m 0,0 km/h (0 Bft) N 0 14,4 C 17,9 C 0,0 km/h (0 Bft) 91,30 %
25.06.2019 04:16 17,9 C 80 % 1019,7 hPa 0,0 l/m 0,0 km/h (0 Bft) O-SO 112 14,4 C 17,9 C 1,6 km/h (1 Bft) 100,00 %
25.06.2019 04:15 17,9 C 80 % 1019,6 hPa 0,0 l/m 0,0 km/h (0 Bft) O 90 14,4 C 17,9 C 1,6 km/h (1 Bft) 95,65 %
25.06.2019 04:14 17,9 C 80 % 1019,6 hPa 0,0 l/m 3,2 km/h (1 Bft) O 90 14,4 C 17,9 C 8,0 km/h (2 Bft) 95,65 %
25.06.2019 04:13 17,9 C 80 % 1019,5 hPa 0,0 l/m 0,0 km/h (0 Bft) N 0 14,4 C 17,9 C 0,0 km/h (0 Bft) 91,30 %
25.06.2019 04:12 17,9 C 80 % 1019,6 hPa 0,0 l/m 0,0 km/h (0 Bft) N-NO 22 14,4 C 17,9 C 3,2 km/h (1 Bft) 100,00 %
25.06.2019 04:11 17,9 C 80 % 1019,7 hPa 0,0 l/m 1,6 km/h (1 Bft) NO 45 14,4 C 17,9 C 3,2 km/h (1 Bft) 95,65 %
25.06.2019 04:10 17,9 C 80 % 1019,7 hPa 0,0 l/m 0,0 km/h (0 Bft) W-SW 247 14,4 C 17,9 C 1,6 km/h (1 Bft) 95,65 %
25.06.2019 04:09 17,9 C 80 % 1019,8 hPa 0,0 l/m 1,6 km/h (1 Bft) O-NO 67 14,4 C 17,9 C 6,4 km/h (2 Bft) 100,00 %
25.06.2019 04:08 17,9 C 80 % 1019,6 hPa 0,0 l/m 0,0 km/h (0 Bft) SO 135 14,4 C 17,9 C 1,6 km/h (1 Bft) 91,30 %
25.06.2019 04:07 17,9 C 80 % 1019,6 hPa 0,0 l/m 0,0 km/h (0 Bft) NW 315 14,4 C 17,9 C 1,6 km/h (1 Bft) 100,00 %
25.06.2019 04:06 17,9 C 80 % 1019,7 hPa 0,0 l/m 0,0 km/h (0 Bft) N 0 14,4 C 17,9 C 0,0 km/h (0 Bft) 95,65 %
25.06.2019 04:05 17,9 C 79 % 1019,5 hPa 0,0 l/m 0,0 km/h (0 Bft) N 0 14,2 C 17,9 C 0,0 km/h (0 Bft) 91,30 %
25.06.2019 04:04 17,9 C 79 % 1019,8 hPa 0,0 l/m 0,0 km/h (0 Bft) N 0 14,2 C 17,9 C 0,0 km/h (0 Bft) 100,00 %
25.06.2019 04:03 18,0 C 79 % 1019,7 hPa 0,0 l/m 0,0 km/h (0 Bft) N 0 14,3 C 18,0 C 0,0 km/h (0 Bft) 100,00 %
25.06.2019 04:02 18,0 C 79 % 1019,7 hPa 0,0 l/m 0,0 km/h (0 Bft) N 0 14,3 C 18,0 C 0,0 km/h (0 Bft) 100,00 %
25.06.2019 04:01 18,1 C 79 % 1019,7 hPa 0,0 l/m 0,0 km/h (0 Bft) N 0 14,4 C 18,1 C 0,0 km/h (0 Bft) 91,30 %
25.06.2019 04:00 18,1 C 79 % 1019,7 hPa 0,0 l/m 0,0 km/h (0 Bft) N 0 14,4 C 18,1 C 0,0 km/h (0 Bft) 100,00 %
25.06.2019 03:59 18,1 C 79 % 1019,8 hPa 0,0 l/m 0,0 km/h (0 Bft) NO 45 14,4 C 18,1 C 3,2 km/h (1 Bft) 91,30 %
25.06.2019 03:58 18,1 C 79 % 1019,7 hPa 0,0 l/m 0,0 km/h (0 Bft) SO 135 14,4 C 18,1 C 1,6 km/h (1 Bft) 100,00 %
25.06.2019 03:57 18,1 C 79 % 1019,7 hPa 0,0 l/m 1,6 km/h (1 Bft) O-SO 112 14,4 C 18,1 C 3,2 km/h (1 Bft) 95,65 %
25.06.2019 03:56 18,1 C 79 % 1019,8 hPa 0,0 l/m 1,6 km/h (1 Bft) O 90 14,4 C 18,1 C 4,8 km/h (1 Bft) 91,30 %
25.06.2019 03:55 18,2 C 79 % 1019,7 hPa 0,0 l/m 0,0 km/h (0 Bft) N 0 14,5 C 18,2 C 0,0 km/h (0 Bft) 100,00 %
25.06.2019 03:54 18,2 C 79 % 1019,7 hPa 0,0 l/m 1,6 km/h (1 Bft) O-SO 112 14,5 C 18,2 C 8,0 km/h (2 Bft) 100,00 %
25.06.2019 03:53 18,2 C 79 % 1019,7 hPa 0,0 l/m 1,6 km/h (1 Bft) N 360 14,5 C 18,2 C 6,4 km/h (2 Bft) 95,65 %
25.06.2019 03:52 18,2 C 79 % 1019,7 hPa 0,0 l/m 0,0 km/h (0 Bft) N 0 14,5 C 18,2 C 0,0 km/h (0 Bft) 95,65 %
25.06.2019 03:51 18,2 C 79 % 1019,8 hPa 0,0 l/m 0,0 km/h (0 Bft) O-SO 112 14,5 C 18,2 C 1,6 km/h (1 Bft) 91,30 %
25.06.2019 03:50 18,2 C 79 % 1019,7 hPa 0,0 l/m 0,0 km/h (0 Bft) O-NO 67 14,5 C 18,2 C 1,6 km/h (1 Bft) 100,00 %
25.06.2019 03:49 18,2 C 79 % 1019,8 hPa 0,0 l/m 0,0 km/h (0 Bft) O-NO 67 14,5 C 18,2 C 1,6 km/h (1 Bft) 91,30 %
25.06.2019 03:48 18,2 C 79 % 1019,7 hPa 0,0 l/m 1,6 km/h (1 Bft) SO 135 14,5 C 18,2 C 3,2 km/h (1 Bft) 95,65 %
25.06.2019 03:47 18,2 C 79 % 1019,8 hPa 0,0 l/m 0,0 km/h (0 Bft) N 0 14,5 C 18,2 C 0,0 km/h (0 Bft) 100,00 %
25.06.2019 03:46 18,2 C 79 % 1019,8 hPa 0,0 l/m 1,6 km/h (1 Bft) SW 225 14,5 C 18,2 C 4,8 km/h (1 Bft) 95,65 %
25.06.2019 03:45 18,1 C 79 % 1019,8 hPa 0,0 l/m 1,6 km/h (1 Bft) W 270 14,4 C 18,1 C 4,8 km/h (1 Bft) 95,65 %
25.06.2019 03:44 18,1 C 79 % 1019,8 hPa 0,0 l/m 0,0 km/h (0 Bft) NW 315 14,4 C 18,1 C 1,6 km/h (1 Bft) 95,65 %
25.06.2019 03:43 18,2 C 79 % 1019,8 hPa 0,0 l/m 0,0 km/h (0 Bft) N 0 14,5 C 18,2 C 0,0 km/h (0 Bft) 100,00 %
25.06.2019 03:42 18,2 C 79 % 1019,8 hPa 0,0 l/m 0,0 km/h (0 Bft) N 0 14,5 C 18,2 C 0,0 km/h (0 Bft) 95,65 %
25.06.2019 03:41 18,1 C 79 % 1019,8 hPa 0,0 l/m 0,0 km/h (0 Bft) O-NO 67 14,4 C 18,1 C 3,2 km/h (1 Bft) 100,00 %
25.06.2019 03:40 18,2 C 79 % 1019,9 hPa 0,0 l/m 1,6 km/h (1 Bft) W 270 14,5 C 18,2 C 3,2 km/h (1 Bft) 100,00 %
25.06.2019 03:39 18,1 C 79 % 1019,9 hPa 0,0 l/m 0,0 km/h (0 Bft) N 360 14,4 C 18,1 C 1,6 km/h (1 Bft) 100,00 %
25.06.2019 03:38 18,2 C 79 % 1019,8 hPa 0,0 l/m 0,0 km/h (0 Bft) N 360 14,5 C 18,2 C 1,6 km/h (1 Bft) 95,65 %
25.06.2019 03:37 18,2 C 79 % 1019,9 hPa 0,0 l/m 0,0 km/h (0 Bft) SO 135 14,5 C 18,2 C 1,6 km/h (1 Bft) 91,30 %
25.06.2019 03:36 18,2 C 79 % 1019,9 hPa 0,0 l/m 1,6 km/h (1 Bft) O-SO 112 14,5 C 18,2 C 1,6 km/h (1 Bft) 95,65 %
25.06.2019 03:35 18,1 C 79 % 1019,9 hPa 0,0 l/m 3,2 km/h (1 Bft) O-SO 112 14,4 C 18,1 C 3,2 km/h (1 Bft) 95,65 %
25.06.2019 03:34 18,1 C 79 % 1019,9 hPa 0,0 l/m 0,0 km/h (0 Bft) N-NO 22 14,4 C 18,1 C 1,6 km/h (1 Bft) 95,65 %
25.06.2019 03:33 18,1 C 79 % 1020,0 hPa 0,0 l/m 1,6 km/h (1 Bft) N-NW 337 14,4 C 18,1 C 1,6 km/h (1 Bft) 95,65 %
25.06.2019 03:32 18,2 C 79 % 1019,9 hPa 0,0 l/m 0,0 km/h (0 Bft) W 270 14,5 C 18,2 C 1,6 km/h (1 Bft) 100,00 %
25.06.2019 03:31 18,2 C 79 % 1020,0 hPa 0,0 l/m 0,0 km/h (0 Bft) W 270 14,5 C 18,2 C 1,6 km/h (1 Bft) 95,65 %
25.06.2019 03:30 18,2 C 79 % 1019,9 hPa 0,0 l/m 0,0 km/h (0 Bft) N 0 14,5 C 18,2 C 0,0 km/h (0 Bft) 100,00 %
25.06.2019 03:29 18,2 C 79 % 1020,0 hPa 0,0 l/m 0,0 km/h (0 Bft) N 0 14,5 C 18,2 C 0,0 km/h (0 Bft) 100,00 %
25.06.2019 03:28 18,2 C 79 % 1019,9 hPa 0,0 l/m 0,0 km/h (0 Bft) N 0 14,5 C 18,2 C 0,0 km/h (0 Bft) 95,65 %
25.06.2019 03:27 18,1 C 79 % 1020,0 hPa 0,0 l/m 0,0 km/h (0 Bft) NO 45 14,4 C 18,1 C 1,6 km/h (1 Bft) 95,65 %
25.06.2019 03:26 18,1 C 79 % 1020,0 hPa 0,0 l/m 3,2 km/h (1 Bft) NO 45 14,4 C 18,1 C 4,8 km/h (1 Bft) 100,00 %
25.06.2019 03:25 18,1 C 79 % 1020,0 hPa 0,0 l/m 0,0 km/h (0 Bft) N-NO 22 14,4 C 18,1 C 3,2 km/h (1 Bft) 100,00 %
25.06.2019 03:24 18,1 C 79 % 1020,0 hPa 0,0 l/m 0,0 km/h (0 Bft) N 0 14,4 C 18,1 C 0,0 km/h (0 Bft) 91,30 %
25.06.2019 03:23 18,1 C 79 % 1020,0 hPa 0,0 l/m 0,0 km/h (0 Bft) N 0 14,4 C 18,1 C 0,0 km/h (0 Bft) 100,00 %
25.06.2019 03:22 18,1 C 79 % 1020,1 hPa 0,0 l/m 0,0 km/h (0 Bft) N 0 14,4 C 18,1 C 0,0 km/h (0 Bft) 95,65 %
25.06.2019 03:21 18,1 C 79 % 1020,0 hPa 0,0 l/m 0,0 km/h (0 Bft) N 0 14,4 C 18,1 C 0,0 km/h (0 Bft) 95,65 %
25.06.2019 03:20 18,2 C 79 % 1020,0 hPa 0,0 l/m 0,0 km/h (0 Bft) N 0 14,5 C 18,2 C 0,0 km/h (0 Bft) 91,30 %
25.06.2019 03:19 18,1 C 79 % 1020,0 hPa 0,0 l/m 0,0 km/h (0 Bft) NW 315 14,4 C 18,1 C 1,6 km/h (1 Bft) 100,00 %
25.06.2019 03:18 18,2 C 79 % 1020,0 hPa 0,0 l/m 1,6 km/h (1 Bft) N 360 14,5 C 18,2 C 1,6 km/h (1 Bft) 95,65 %
25.06.2019 03:17 18,2 C 79 % 1020,0 hPa 0,0 l/m 0,0 km/h (0 Bft) N 0 14,5 C 18,2 C 0,0 km/h (0 Bft) 91,30 %
25.06.2019 03:16 18,2 C 79 % 1020,0 hPa 0,0 l/m 0,0 km/h (0 Bft) N 0 14,5 C 18,2 C 0,0 km/h (0 Bft) 95,65 %
25.06.2019 03:15 18,2 C 79 % 1020,0 hPa 0,0 l/m 0,0 km/h (0 Bft) N-NO 22 14,5 C 18,2 C 1,6 km/h (1 Bft) 95,65 %
25.06.2019 03:14 18,3 C 78 % 1020,0 hPa 0,0 l/m 0,0 km/h (0 Bft) N 0 14,4 C 18,3 C 0,0 km/h (0 Bft) 100,00 %
25.06.2019 03:13 18,3 C 78 % 1020,0 hPa 0,0 l/m 0,0 km/h (0 Bft) N 0 14,4 C 18,3 C 0,0 km/h (0 Bft) 100,00 %
25.06.2019 03:12 18,3 C 78 % 1020,0 hPa 0,0 l/m 0,0 km/h (0 Bft) N 0 14,4 C 18,3 C 0,0 km/h (0 Bft) 91,30 %
25.06.2019 03:11 18,3 C 78 % 1019,9 hPa 0,0 l/m 0,0 km/h (0 Bft) N 0 14,4 C 18,3 C 0,0 km/h (0 Bft) 100,00 %
25.06.2019 03:10 18,3 C 78 % 1020,0 hPa 0,0 l/m 0,0 km/h (0 Bft) O 90 14,4 C 18,3 C 1,6 km/h (1 Bft) 95,65 %
25.06.2019 03:09 18,3 C 78 % 1020,0 hPa 0,0 l/m 1,6 km/h (1 Bft) N-NO 22 14,4 C 18,3 C 3,2 km/h (1 Bft) 100,00 %
25.06.2019 03:08 18,3 C 78 % 1020,0 hPa 0,0 l/m 0,0 km/h (0 Bft) NO 45 14,4 C 18,3 C 1,6 km/h (1 Bft) 95,65 %
25.06.2019 03:07 18,3 C 78 % 1020,1 hPa 0,0 l/m 0,0 km/h (0 Bft) N 0 14,4 C 18,3 C 0,0 km/h (0 Bft) 100,00 %
25.06.2019 03:06 18,4 C 78 % 1020,0 hPa 0,0 l/m 0,0 km/h (0 Bft) NO 45 14,5 C 18,4 C 1,6 km/h (1 Bft) 95,65 %
25.06.2019 03:05 18,4 C 78 % 1020,0 hPa 0,0 l/m 0,0 km/h (0 Bft) O-SO 112 14,5 C 18,4 C 1,6 km/h (1 Bft) 100,00 %
25.06.2019 03:04 18,4 C 78 % 1020,0 hPa 0,0 l/m 0,0 km/h (0 Bft) N 0 14,5 C 18,4 C 0,0 km/h (0 Bft) 100,00 %
25.06.2019 03:03 18,4 C 78 % 1020,0 hPa 0,0 l/m 0,0 km/h (0 Bft) N 0 14,5 C 18,4 C 0,0 km/h (0 Bft) 100,00 %
25.06.2019 03:02 18,4 C 78 % 1020,0 hPa 0,0 l/m 0,0 km/h (0 Bft) N 0 14,5 C 18,4 C 0,0 km/h (0 Bft) 100,00 %
25.06.2019 03:01 18,6 C 78 % 1020,0 hPa 0,0 l/m 0,0 km/h (0 Bft) N 0 14,7 C 18,6 C 0,0 km/h (0 Bft) 91,30 %
25.06.2019 03:00 18,5 C 78 % 1020,0 hPa 0,0 l/m 0,0 km/h (0 Bft) N 0 14,6 C 18,5 C 0,0 km/h (0 Bft) 91,30 %
25.06.2019 02:59 18,6 C 78 % 1020,1 hPa 0,0 l/m 0,0 km/h (0 Bft) O 90 14,7 C 18,6 C 1,6 km/h (1 Bft) 100,00 %
25.06.2019 02:58 18,6 C 78 % 1020,1 hPa 0,0 l/m 0,0 km/h (0 Bft) N 0 14,7 C 18,6 C 0,0 km/h (0 Bft) 100,00 %
25.06.2019 02:57 18,5 C 78 % 1020,1 hPa 0,0 l/m 0,0 km/h (0 Bft) O-SO 112 14,6 C 18,5 C 3,2 km/h (1 Bft) 100,00 %
25.06.2019 02:56 18,5 C 78 % 1020,1 hPa 0,0 l/m 1,6 km/h (1 Bft) O 90 14,6 C 18,5 C 3,2 km/h (1 Bft) 95,65 %
25.06.2019 02:55 18,5 C 78 % 1020,1 hPa 0,0 l/m 0,0 km/h (0 Bft) N 360 14,6 C 18,5 C 3,2 km/h (1 Bft) 95,65 %
25.06.2019 02:54 18,6 C 78 % 1020,1 hPa 0,0 l/m 0,0 km/h (0 Bft) O-SO 112 14,7 C 18,6 C 1,6 km/h (1 Bft) 100,00 %
25.06.2019 02:53 18,5 C 77 % 1020,1 hPa 0,0 l/m 0,0 km/h (0 Bft) O-SO 112 14,4 C 18,5 C 1,6 km/h (1 Bft) 95,65 %
25.06.2019 02:52 18,6 C 77 % 1020,1 hPa 0,0 l/m 0,0 km/h (0 Bft) N 0 14,5 C 18,6 C 0,0 km/h (0 Bft) 100,00 %
25.06.2019 02:51 18,6 C 77 % 1020,2 hPa 0,0 l/m 0,0 km/h (0 Bft) N 0 14,5 C 18,6 C 0,0 km/h (0 Bft) 91,30 %
25.06.2019 02:50 18,6 C 77 % 1020,1 hPa 0,0 l/m 0,0 km/h (0 Bft) N 0 14,5 C 18,6 C 0,0 km/h (0 Bft) 100,00 %
25.06.2019 02:49 18,6 C 77 % 1020,2 hPa 0,0 l/m 0,0 km/h (0 Bft) N 0 14,5 C 18,6 C 0,0 km/h (0 Bft) 95,65 %
25.06.2019 02:48 18,6 C 77 % 1020,2 hPa 0,0 l/m 0,0 km/h (0 Bft) N 0 14,5 C 18,6 C 0,0 km/h (0 Bft) 91,30 %
25.06.2019 02:47 18,6 C 77 % 1020,2 hPa 0,0 l/m 1,6 km/h (1 Bft) O-SO 112 14,5 C 18,6 C 4,8 km/h (1 Bft) 95,65 %
25.06.2019 02:46 18,6 C 77 % 1020,1 hPa 0,0 l/m 1,6 km/h (1 Bft) O-SO 112 14,5 C 18,6 C 6,4 km/h (2 Bft) 95,65 %
25.06.2019 02:45 18,6 C 77 % 1020,2 hPa 0,0 l/m 0,0 km/h (0 Bft) N 0 14,5 C 18,6 C 0,0 km/h (0 Bft) 95,65 %
25.06.2019 02:44 18,6 C 77 % 1020,2 hPa 0,0 l/m 0,0 km/h (0 Bft) N 0 14,5 C 18,6 C 0,0 km/h (0 Bft) 100,00 %
25.06.2019 02:43 18,6 C 77 % 1020,1 hPa 0,0 l/m 0,0 km/h (0 Bft) N 0 14,5 C 18,6 C 0,0 km/h (0 Bft) 100,00 %
25.06.2019 02:42 18,6 C 77 % 1020,2 hPa 0,0 l/m 0,0 km/h (0 Bft) NW 315 14,5 C 18,6 C 1,6 km/h (1 Bft) 91,30 %
25.06.2019 02:41 18,6 C 77 % 1020,3 hPa 0,0 l/m 0,0 km/h (0 Bft) N 0 14,5 C 18,6 C 0,0 km/h (0 Bft) 95,65 %
25.06.2019 02:40 18,7 C 77 % 1020,3 hPa 0,0 l/m 0,0 km/h (0 Bft) N 0 14,6 C 18,7 C 0,0 km/h (0 Bft) 100,00 %
25.06.2019 02:39 18,7 C 77 % 1020,3 hPa 0,0 l/m 0,0 km/h (0 Bft) N 0 14,6 C 18,7 C 0,0 km/h (0 Bft) 100,00 %
25.06.2019 02:38 18,6 C 77 % 1020,3 hPa 0,0 l/m 0,0 km/h (0 Bft) N 0 14,5 C 18,6 C 0,0 km/h (0 Bft) 95,65 %
25.06.2019 02:37 18,7 C 77 % 1020,3 hPa 0,0 l/m 0,0 km/h (0 Bft) N 0 14,6 C 18,7 C 0,0 km/h (0 Bft) 91,30 %
25.06.2019 02:36 18,7 C 77 % 1020,4 hPa 0,0 l/m 0,0 km/h (0 Bft) N 0 14,6 C 18,7 C 0,0 km/h (0 Bft) 91,30 %
25.06.2019 02:35 18,7 C 77 % 1020,3 hPa 0,0 l/m 0,0 km/h (0 Bft) O 90 14,6 C 18,7 C 1,6 km/h (1 Bft) 100,00 %
25.06.2019 02:34 18,7 C 77 % 1020,4 hPa 0,0 l/m 0,0 km/h (0 Bft) O 90 14,6 C 18,7 C 1,6 km/h (1 Bft) 91,30 %
25.06.2019 02:33 18,7 C 77 % 1020,5 hPa 0,0 l/m 0,0 km/h (0 Bft) O 90 14,6 C 18,7 C 1,6 km/h (1 Bft) 100,00 %
25.06.2019 02:32 18,7 C 77 % 1020,3 hPa 0,0 l/m 0,0 km/h (0 Bft) O 90 14,6 C 18,7 C 1,6 km/h (1 Bft) 95,65 %
25.06.2019 02:31 18,8 C 77 % 1020,3 hPa 0,0 l/m 1,6 km/h (1 Bft) W-SW 247 14,7 C 18,8 C 3,2 km/h (1 Bft) 95,65 %
25.06.2019 02:30 18,7 C 77 % 1020,5 hPa 0,0 l/m 0,0 km/h (0 Bft) N 0 14,6 C 18,7 C 0,0 km/h (0 Bft) 100,00 %
25.06.2019 02:29 18,8 C 77 % 1020,5 hPa 0,0 l/m 0,0 km/h (0 Bft) S 180 14,7 C 18,8 C 1,6 km/h (1 Bft) 95,65 %
25.06.2019 02:28 18,8 C 77 % 1020,5 hPa 0,0 l/m 0,0 km/h (0 Bft) SO 135 14,7 C 18,8 C 1,6 km/h (1 Bft) 100,00 %
25.06.2019 02:27 18,8 C 77 % 1020,4 hPa 0,0 l/m 0,0 km/h (0 Bft) N 0 14,7 C 18,8 C 0,0 km/h (0 Bft) 91,30 %
25.06.2019 02:26 18,9 C 77 % 1020,4 hPa 0,0 l/m 0,0 km/h (0 Bft) SO 135 14,8 C 18,9 C 1,6 km/h (1 Bft) 95,65 %
25.06.2019 02:25 18,9 C 77 % 1020,4 hPa 0,0 l/m 0,0 km/h (0 Bft) O 90 14,8 C 18,9 C 1,6 km/h (1 Bft) 91,30 %
25.06.2019 02:24 18,9 C 76 % 1020,5 hPa 0,0 l/m 1,6 km/h (1 Bft) O 90 14,6 C 18,9 C 1,6 km/h (1 Bft) 95,65 %
25.06.2019 02:23 18,9 C 77 % 1020,4 hPa 0,0 l/m 0,0 km/h (0 Bft) SO 135 14,8 C 18,9 C 1,6 km/h (1 Bft) 100,00 %
25.06.2019 02:22 18,9 C 77 % 1020,5 hPa 0,0 l/m 1,6 km/h (1 Bft) SO 135 14,8 C 18,9 C 3,2 km/h (1 Bft) 95,65 %
25.06.2019 02:21 18,8 C 77 % 1020,5 hPa 0,0 l/m 3,2 km/h (1 Bft) S-SO 157 14,7 C 18,8 C 6,4 km/h (2 Bft) 100,00 %
25.06.2019 02:20 18,8 C 77 % 1020,4 hPa 0,0 l/m 0,0 km/h (0 Bft) SO 135 14,7 C 18,8 C 1,6 km/h (1 Bft) 95,65 %
25.06.2019 02:19 18,9 C 76 % 1020,5 hPa 0,0 l/m 0,0 km/h (0 Bft) W-NW 292 14,6 C 18,9 C 1,6 km/h (1 Bft) 91,30 %
25.06.2019 02:18 18,9 C 76 % 1020,5 hPa 0,0 l/m 0,0 km/h (0 Bft) NW 315 14,6 C 18,9 C 1,6 km/h (1 Bft) 100,00 %
25.06.2019 02:17 18,9 C 76 % 1020,4 hPa 0,0 l/m 0,0 km/h (0 Bft) N 0 14,6 C 18,9 C 0,0 km/h (0 Bft) 91,30 %
25.06.2019 02:16 18,9 C 76 % 1020,4 hPa 0,0 l/m 1,6 km/h (1 Bft) N 360 14,6 C 18,9 C 1,6 km/h (1 Bft) 95,65 %
25.06.2019 02:15 18,9 C 76 % 1020,4 hPa 0,0 l/m 1,6 km/h (1 Bft) O-SO 112 14,6 C 18,9 C 4,8 km/h (1 Bft) 91,30 %
25.06.2019 02:14 19,0 C 76 % 1020,5 hPa 0,0 l/m 1,6 km/h (1 Bft) S-SW 202 14,7 C 19,0 C 3,2 km/h (1 Bft) 100,00 %
25.06.2019 02:13 19,0 C 76 % 1020,4 hPa 0,0 l/m 1,6 km/h (1 Bft) N-NW 337 14,7 C 19,0 C 1,6 km/h (1 Bft) 95,65 %
25.06.2019 02:12 19,0 C 76 % 1020,4 hPa 0,0 l/m 0,0 km/h (0 Bft) N 360 14,7 C 19,0 C 1,6 km/h (1 Bft) 95,65 %
25.06.2019 02:11 19,0 C 76 % 1020,5 hPa 0,0 l/m 0,0 km/h (0 Bft) N 360 14,7 C 19,0 C 1,6 km/h (1 Bft) 100,00 %
25.06.2019 02:10 19,1 C 76 % 1020,5 hPa 0,0 l/m 0,0 km/h (0 Bft) N 0 14,8 C 19,1 C 0,0 km/h (0 Bft) 95,65 %
25.06.2019 02:09 19,1 C 76 % 1020,5 hPa 0,0 l/m 0,0 km/h (0 Bft) N-NO 22 14,8 C 19,1 C 1,6 km/h (1 Bft) 95,65 %
25.06.2019 02:08 19,0 C 76 % 1020,4 hPa 0,0 l/m 0,0 km/h (0 Bft) N 0 14,7 C 19,0 C 0,0 km/h (0 Bft) 95,65 %
25.06.2019 02:07 19,0 C 76 % 1020,5 hPa 0,0 l/m 0,0 km/h (0 Bft) N-NO 22 14,7 C 19,0 C 1,6 km/h (1 Bft) 100,00 %
25.06.2019 02:06 19,0 C 76 % 1020,5 hPa 0,0 l/m 0,0 km/h (0 Bft) N-NO 22 14,7 C 19,0 C 3,2 km/h (1 Bft) 100,00 %
25.06.2019 02:05 19,0 C 75 % 1020,5 hPa 0,0 l/m 0,0 km/h (0 Bft) N 0 14,5 C 19,0 C 0,0 km/h (0 Bft) 95,65 %
25.06.2019 02:04 19,0 C 75 % 1020,5 hPa 0,0 l/m 0,0 km/h (0 Bft) N 0 14,5 C 19,0 C 0,0 km/h (0 Bft) 95,65 %
25.06.2019 02:03 19,0 C 75 % 1020,5 hPa 0,0 l/m 0,0 km/h (0 Bft) N 0 14,5 C 19,0 C 0,0 km/h (0 Bft) 95,65 %
25.06.2019 02:02 19,0 C 75 % 1020,5 hPa 0,0 l/m 0,0 km/h (0 Bft) W-SW 247 14,5 C 19,0 C 1,6 km/h (1 Bft) 95,65 %
25.06.2019 02:01 19,0 C 75 % 1020,4 hPa 0,0 l/m 0,0 km/h (0 Bft) W-SW 247 14,5 C 19,0 C 1,6 km/h (1 Bft) 91,30 %
25.06.2019 02:00 19,0 C 75 % 1020,5 hPa 0,0 l/m 0,0 km/h (0 Bft) S 180 14,5 C 19,0 C 1,6 km/h (1 Bft) 95,65 %
25.06.2019 01:59 19,1 C 75 % 1020,5 hPa 0,0 l/m 0,0 km/h (0 Bft) N 0 14,6 C 19,1 C 0,0 km/h (0 Bft) 95,65 %
25.06.2019 01:58 19,1 C 75 % 1020,5 hPa 0,0 l/m 0,0 km/h (0 Bft) N-NO 22 14,6 C 19,1 C 1,6 km/h (1 Bft) 91,30 %
25.06.2019 01:57 19,1 C 75 % 1020,5 hPa 0,0 l/m 0,0 km/h (0 Bft) N 0 14,6 C 19,1 C 0,0 km/h (0 Bft) 100,00 %
25.06.2019 01:56 19,1 C 75 % 1020,5 hPa 0,0 l/m 0,0 km/h (0 Bft) NO 45 14,6 C 19,1 C 1,6 km/h (1 Bft) 91,30 %
25.06.2019 01:55 19,1 C 75 % 1020,5 hPa 0,0 l/m 0,0 km/h (0 Bft) N 0 14,6 C 19,1 C 0,0 km/h (0 Bft) 95,65 %
25.06.2019 01:54 19,1 C 75 % 1020,5 hPa 0,0 l/m 0,0 km/h (0 Bft) NO 45 14,6 C 19,1 C 1,6 km/h (1 Bft) 95,65 %
25.06.2019 01:53 19,2 C 75 % 1020,4 hPa 0,0 l/m 0,0 km/h (0 Bft) N 0 14,7 C 19,2 C 0,0 km/h (0 Bft) 91,30 %
25.06.2019 01:52 19,2 C 75 % 1020,5 hPa 0,0 l/m 0,0 km/h (0 Bft) N 0 14,7 C 19,2 C 0,0 km/h (0 Bft) 100,00 %
25.06.2019 01:51 19,2 C 75 % 1020,4 hPa 0,0 l/m 0,0 km/h (0 Bft) N 0 14,7 C 19,2 C 0,0 km/h (0 Bft) 91,30 %
25.06.2019 01:50 19,2 C 75 % 1020,5 hPa 0,0 l/m 0,0 km/h (0 Bft) N 0 14,7 C 19,2 C 0,0 km/h (0 Bft) 95,65 %
25.06.2019 01:49 19,3 C 75 % 1020,4 hPa 0,0 l/m 0,0 km/h (0 Bft) NO 45 14,8 C 19,3 C 1,6 km/h (1 Bft) 95,65 %
25.06.2019 01:48 19,2 C 75 % 1020,5 hPa 0,0 l/m 1,6 km/h (1 Bft) S 180 14,7 C 19,2 C 3,2 km/h (1 Bft) 91,30 %
25.06.2019 01:47 19,2 C 75 % 1020,4 hPa 0,0 l/m 0,0 km/h (0 Bft) N 0 14,7 C 19,2 C 0,0 km/h (0 Bft) 95,65 %
25.06.2019 01:46 19,1 C 75 % 1020,4 hPa 0,0 l/m 1,6 km/h (1 Bft) N-NO 22 14,6 C 19,1 C 6,4 km/h (2 Bft) 91,30 %
25.06.2019 01:45 19,1 C 75 % 1020,5 hPa 0,0 l/m 3,2 km/h (1 Bft) N-NO 22 14,6 C 19,1 C 6,4 km/h (2 Bft) 100,00 %
25.06.2019 01:44 19,2 C 75 % 1020,6 hPa 0,0 l/m 0,0 km/h (0 Bft) N 0 14,7 C 19,2 C 0,0 km/h (0 Bft) 95,65 %
25.06.2019 01:43 19,2 C 75 % 1020,6 hPa 0,0 l/m 0,0 km/h (0 Bft) N 0 14,7 C 19,2 C 0,0 km/h (0 Bft) 95,65 %
25.06.2019 01:42 19,2 C 75 % 1020,5 hPa 0,0 l/m 0,0 km/h (0 Bft) N 0 14,7 C 19,2 C 0,0 km/h (0 Bft) 100,00 %
25.06.2019 01:41 19,2 C 75 % 1020,6 hPa 0,0 l/m 1,6 km/h (1 Bft) N-NO 22 14,7 C 19,2 C 3,2 km/h (1 Bft) 91,30 %
25.06.2019 01:40 19,2 C 75 % 1020,6 hPa 0,0 l/m 1,6 km/h (1 Bft) N 360 14,7 C 19,2 C 1,6 km/h (1 Bft) 95,65 %
25.06.2019 01:39 19,2 C 75 % 1020,6 hPa 0,0 l/m 0,0 km/h (0 Bft) N 360 14,7 C 19,2 C 1,6 km/h (1 Bft) 91,30 %
25.06.2019 01:38 19,2 C 75 % 1020,5 hPa 0,0 l/m 0,0 km/h (0 Bft) NO 45 14,7 C 19,2 C 1,6 km/h (1 Bft) 91,30 %
25.06.2019 01:37 19,2 C 74 % 1020,6 hPa 0,0 l/m 0,0 km/h (0 Bft) N 0 14,4 C 19,2 C 0,0 km/h (0 Bft) 100,00 %
25.06.2019 01:36 19,2 C 74 % 1020,5 hPa 0,0 l/m 0,0 km/h (0 Bft) N 0 14,4 C 19,2 C 0,0 km/h (0 Bft) 95,65 %
25.06.2019 01:35 19,3 C 74 % 1020,6 hPa 0,0 l/m 0,0 km/h (0 Bft) N 0 14,5 C 19,3 C 0,0 km/h (0 Bft) 95,65 %
25.06.2019 01:34 19,3 C 74 % 1020,5 hPa 0,0 l/m 0,0 km/h (0 Bft) N 0 14,5 C 19,3 C 0,0 km/h (0 Bft) 95,65 %
25.06.2019 01:33 19,3 C 74 % 1020,5 hPa 0,0 l/m 0,0 km/h (0 Bft) N 0 14,5 C 19,3 C 0,0 km/h (0 Bft) 100,00 %
25.06.2019 01:32 19,3 C 74 % 1020,6 hPa 0,0 l/m 0,0 km/h (0 Bft) N 0 14,5 C 19,3 C 0,0 km/h (0 Bft) 91,30 %
25.06.2019 01:31 19,3 C 74 % 1020,5 hPa 0,0 l/m 0,0 km/h (0 Bft) N 0 14,5 C 19,3 C 0,0 km/h (0 Bft) 95,65 %
25.06.2019 01:30 19,4 C 74 % 1020,6 hPa 0,0 l/m 0,0 km/h (0 Bft) N 0 14,6 C 19,4 C 0,0 km/h (0 Bft) 95,65 %
25.06.2019 01:29 19,4 C 74 % 1020,5 hPa 0,0 l/m 0,0 km/h (0 Bft) N 0 14,6 C 19,4 C 0,0 km/h (0 Bft) 100,00 %
25.06.2019 01:28 19,4 C 74 % 1020,6 hPa 0,0 l/m 0,0 km/h (0 Bft) O-NO 67 14,6 C 19,4 C 1,6 km/h (1 Bft) 95,65 %
25.06.2019 01:27 19,4 C 74 % 1020,6 hPa 0,0 l/m 0,0 km/h (0 Bft) N 0 14,6 C 19,4 C 0,0 km/h (0 Bft) 95,65 %
25.06.2019 01:26 19,4 C 74 % 1020,5 hPa 0,0 l/m 0,0 km/h (0 Bft) NO 45 14,6 C 19,4 C 1,6 km/h (1 Bft) 95,65 %
25.06.2019 01:25 19,4 C 74 % 1020,4 hPa 0,0 l/m 1,6 km/h (1 Bft) N 360 14,6 C 19,4 C 3,2 km/h (1 Bft) 95,65 %
25.06.2019 01:24 19,4 C 74 % 1020,6 hPa 0,0 l/m 1,6 km/h (1 Bft) N 360 14,6 C 19,4 C 3,2 km/h (1 Bft) 95,65 %
25.06.2019 01:23 19,5 C 73 % 1020,5 hPa 0,0 l/m 0,0 km/h (0 Bft) W-NW 292 14,5 C 19,5 C 1,6 km/h (1 Bft) 100,00 %
25.06.2019 01:22 19,5 C 73 % 1020,5 hPa 0,0 l/m 0,0 km/h (0 Bft) W-SW 247 14,5 C 19,5 C 1,6 km/h (1 Bft) 95,65 %
25.06.2019 01:21 19,6 C 73 % 1020,6 hPa 0,0 l/m 0,0 km/h (0 Bft) N 0 14,6 C 19,6 C 0,0 km/h (0 Bft) 100,00 %
25.06.2019 01:20 19,6 C 73 % 1020,5 hPa 0,0 l/m 0,0 km/h (0 Bft) N 0 14,6 C 19,6 C 0,0 km/h (0 Bft) 91,30 %
25.06.2019 01:19 19,6 C 73 % 1020,6 hPa 0,0 l/m 0,0 km/h (0 Bft) N 0 14,6 C 19,6 C 0,0 km/h (0 Bft) 100,00 %
25.06.2019 01:18 19,6 C 73 % 1020,5 hPa 0,0 l/m 0,0 km/h (0 Bft) SW 225 14,6 C 19,6 C 1,6 km/h (1 Bft) 95,65 %
25.06.2019 01:17 19,6 C 73 % 1020,6 hPa 0,0 l/m 0,0 km/h (0 Bft) S-SW 202 14,6 C 19,6 C 1,6 km/h (1 Bft) 95,65 %
25.06.2019 01:16 19,6 C 73 % 1020,6 hPa 0,0 l/m 0,0 km/h (0 Bft) N-NO 22 14,6 C 19,6 C 3,2 km/h (1 Bft) 100,00 %
25.06.2019 01:15 19,6 C 73 % 1020,6 hPa 0,0 l/m 0,0 km/h (0 Bft) N 360 14,6 C 19,6 C 1,6 km/h (1 Bft) 95,65 %
25.06.2019 01:14 19,6 C 73 % 1020,6 hPa 0,0 l/m 1,6 km/h (1 Bft) W-SW 247 14,6 C 19,6 C 3,2 km/h (1 Bft) 95,65 %
25.06.2019 01:13 19,6 C 73 % 1020,6 hPa 0,0 l/m 0,0 km/h (0 Bft) S-SO 157 14,6 C 19,6 C 3,2 km/h (1 Bft) 100,00 %
25.06.2019 01:12 19,6 C 73 % 1020,6 hPa 0,0 l/m 1,6 km/h (1 Bft) SO 135 14,6 C 19,6 C 3,2 km/h (1 Bft) 95,65 %
25.06.2019 01:11 19,6 C 73 % 1020,6 hPa 0,0 l/m 0,0 km/h (0 Bft) N 0 14,6 C 19,6 C 0,0 km/h (0 Bft) 95,65 %
25.06.2019 01:10 19,6 C 73 % 1020,6 hPa 0,0 l/m 0,0 km/h (0 Bft) N 0 14,6 C 19,6 C 0,0 km/h (0 Bft) 91,30 %
25.06.2019 01:09 19,6 C 72 % 1020,6 hPa 0,0 l/m 1,6 km/h (1 Bft) N 360 14,4 C 19,6 C 1,6 km/h (1 Bft) 100,00 %
25.06.2019 01:08 19,7 C 72 % 1020,6 hPa 0,0 l/m 0,0 km/h (0 Bft) W-NW 292 14,5 C 19,7 C 1,6 km/h (1 Bft) 100,00 %
25.06.2019 01:07 19,7 C 72 % 1020,6 hPa 0,0 l/m 0,0 km/h (0 Bft) N 0 14,5 C 19,7 C 0,0 km/h (0 Bft) 95,65 %
25.06.2019 01:06 19,7 C 72 % 1020,6 hPa 0,0 l/m 0,0 km/h (0 Bft) N 0 14,5 C 19,7 C 0,0 km/h (0 Bft) 95,65 %
25.06.2019 01:05 19,7 C 72 % 1020,6 hPa 0,0 l/m 0,0 km/h (0 Bft) W 270 14,5 C 19,7 C 1,6 km/h (1 Bft) 91,30 %
25.06.2019 01:04 19,7 C 72 % 1020,6 hPa 0,0 l/m 0,0 km/h (0 Bft) N 360 14,5 C 19,7 C 1,6 km/h (1 Bft) 100,00 %
25.06.2019 01:03 19,8 C 72 % 1020,6 hPa 0,0 l/m 0,0 km/h (0 Bft) NO 45 14,6 C 19,8 C 1,6 km/h (1 Bft) 91,30 %
25.06.2019 01:02 19,8 C 72 % 1020,7 hPa 0,0 l/m 1,6 km/h (1 Bft) N-NO 22 14,6 C 19,8 C 3,2 km/h (1 Bft) 91,30 %
25.06.2019 01:01 19,8 C 72 % 1020,6 hPa 0,0 l/m 0,0 km/h (0 Bft) NO 45 14,6 C 19,8 C 1,6 km/h (1 Bft) 100,00 %
25.06.2019 01:00 19,8 C 72 % 1020,6 hPa 0,0 l/m 1,6 km/h (1 Bft) SO 135 14,6 C 19,8 C 1,6 km/h (1 Bft) 95,65 %
25.06.2019 00:59 19,8 C 72 % 1020,6 hPa 0,0 l/m 3,2 km/h (1 Bft) O 90 14,6 C 19,8 C 4,8 km/h (1 Bft) 100,00 %
25.06.2019 00:58 19,7 C 72 % 1020,6 hPa 0,0 l/m 1,6 km/h (1 Bft) N 360 14,5 C 19,7 C 3,2 km/h (1 Bft) 100,00 %
25.06.2019 00:57 19,8 C 72 % 1020,6 hPa 0,0 l/m 0,0 km/h (0 Bft) N 360 14,6 C 19,8 C 1,6 km/h (1 Bft) 95,65 %
25.06.2019 00:56 19,8 C 72 % 1020,6 hPa 0,0 l/m 0,0 km/h (0 Bft) N 360 14,6 C 19,8 C 1,6 km/h (1 Bft) 95,65 %
25.06.2019 00:55 19,8 C 71 % 1020,6 hPa 0,0 l/m 0,0 km/h (0 Bft) N 360 14,4 C 19,8 C 1,6 km/h (1 Bft) 91,30 %
25.06.2019 00:54 19,8 C 71 % 1020,6 hPa 0,0 l/m 0,0 km/h (0 Bft) N 0 14,4 C 19,8 C 0,0 km/h (0 Bft) 100,00 %
25.06.2019 00:53 19,8 C 71 % 1020,6 hPa 0,0 l/m 0,0 km/h (0 Bft) W-NW 292 14,4 C 19,8 C 1,6 km/h (1 Bft) 91,30 %
25.06.2019 00:52 19,9 C 71 % 1020,7 hPa 0,0 l/m 0,0 km/h (0 Bft) N 0 14,5 C 19,9 C 0,0 km/h (0 Bft) 95,65 %
25.06.2019 00:51 19,9 C 71 % 1020,7 hPa 0,0 l/m 0,0 km/h (0 Bft) N 0 14,5 C 19,9 C 0,0 km/h (0 Bft) 91,30 %
25.06.2019 00:50 19,9 C 71 % 1020,6 hPa 0,0 l/m 0,0 km/h (0 Bft) S-SW 202 14,5 C 19,9 C 1,6 km/h (1 Bft) 95,65 %
25.06.2019 00:49 19,9 C 71 % 1020,7 hPa 0,0 l/m 0,0 km/h (0 Bft) SO 135 14,5 C 19,9 C 3,2 km/h (1 Bft) 100,00 %
25.06.2019 00:48 19,9 C 71 % 1020,6 hPa 0,0 l/m 0,0 km/h (0 Bft) N-NO 22 14,5 C 19,9 C 1,6 km/h (1 Bft) 95,65 %
25.06.2019 00:47 19,9 C 71 % 1020,7 hPa 0,0 l/m 1,6 km/h (1 Bft) N-NO 22 14,5 C 19,9 C 6,4 km/h (2 Bft) 95,65 %
25.06.2019 00:46 19,9 C 71 % 1020,6 hPa 0,0 l/m 3,2 km/h (1 Bft) NW 315 14,5 C 19,9 C 6,4 km/h (2 Bft) 91,30 %
25.06.2019 00:45 19,9 C 71 % 1020,6 hPa 0,0 l/m 0,0 km/h (0 Bft) N 0 14,5 C 19,9 C 0,0 km/h (0 Bft) 95,65 %
25.06.2019 00:44 19,8 C 71 % 1020,6 hPa 0,0 l/m 0,0 km/h (0 Bft) N 0 14,4 C 19,8 C 0,0 km/h (0 Bft) 100,00 %
25.06.2019 00:43 19,8 C 71 % 1020,6 hPa 0,0 l/m 0,0 km/h (0 Bft) NO 45 14,4 C 19,8 C 1,6 km/h (1 Bft) 91,30 %
25.06.2019 00:42 19,8 C 71 % 1020,6 hPa 0,0 l/m 0,0 km/h (0 Bft) N 0 14,4 C 19,8 C 0,0 km/h (0 Bft) 91,30 %
25.06.2019 00:41 19,9 C 71 % 1020,6 hPa 0,0 l/m 0,0 km/h (0 Bft) N 0 14,5 C 19,9 C 0,0 km/h (0 Bft) 95,65 %
25.06.2019 00:40 19,9 C 71 % 1020,7 hPa 0,0 l/m 0,0 km/h (0 Bft) N 360 14,5 C 19,9 C 1,6 km/h (1 Bft) 95,65 %
25.06.2019 00:39 19,9 C 71 % 1020,6 hPa 0,0 l/m 0,0 km/h (0 Bft) N 0 14,5 C 19,9 C 0,0 km/h (0 Bft) 91,30 %
25.06.2019 00:38 20,0 C 71 % 1020,7 hPa 0,0 l/m 1,6 km/h (1 Bft) O 90 14,6 C 20,0 C 3,2 km/h (1 Bft) 95,65 %
25.06.2019 00:37 20,1 C 71 % 1020,7 hPa 0,0 l/m 1,6 km/h (1 Bft) O 90 14,7 C 20,1 C 3,2 km/h (1 Bft) 100,00 %
25.06.2019 00:36 20,1 C 70 % 1020,7 hPa 0,0 l/m 0,0 km/h (0 Bft) N 0 14,5 C 20,1 C 0,0 km/h (0 Bft) 100,00 %
25.06.2019 00:35 20,1 C 70 % 1020,7 hPa 0,0 l/m 0,0 km/h (0 Bft) O-SO 112 14,5 C 20,1 C 1,6 km/h (1 Bft) 100,00 %
25.06.2019 00:34 20,1 C 70 % 1020,7 hPa 0,0 l/m 0,0 km/h (0 Bft) SO 135 14,5 C 20,1 C 1,6 km/h (1 Bft) 95,65 %
25.06.2019 00:33 20,1 C 70 % 1020,8 hPa 0,0 l/m 1,6 km/h (1 Bft) N-NO 22 14,5 C 20,1 C 1,6 km/h (1 Bft) 95,65 %
25.06.2019 00:32 20,1 C 70 % 1020,6 hPa 0,0 l/m 1,6 km/h (1 Bft) O 90 14,5 C 20,1 C 3,2 km/h (1 Bft) 100,00 %
25.06.2019 00:31 20,2 C 70 % 1020,8 hPa 0,0 l/m 0,0 km/h (0 Bft) N 0 14,5 C 20,2 C 0,0 km/h (0 Bft) 95,65 %
25.06.2019 00:30 20,1 C 70 % 1020,8 hPa 0,0 l/m 1,6 km/h (1 Bft) O-NO 67 14,5 C 20,1 C 6,4 km/h (2 Bft) 95,65 %
25.06.2019 00:29 20,1 C 70 % 1020,8 hPa 0,0 l/m 3,2 km/h (1 Bft) SO 135 14,5 C 20,1 C 6,4 km/h (2 Bft) 95,65 %
25.06.2019 00:28 20,1 C 70 % 1020,8 hPa 0,0 l/m 0,0 km/h (0 Bft) O-NO 67 14,5 C 20,1 C 1,6 km/h (1 Bft) 95,65 %
25.06.2019 00:27 20,1 C 70 % 1020,8 hPa 0,0 l/m 0,0 km/h (0 Bft) NO 45 14,5 C 20,1 C 1,6 km/h (1 Bft) 95,65 %
25.06.2019 00:26 20,1 C 70 % 1020,8 hPa 0,0 l/m 1,6 km/h (1 Bft) SW 225 14,5 C 20,1 C 3,2 km/h (1 Bft) 91,30 %
25.06.2019 00:25 20,1 C 70 % 1020,8 hPa 0,0 l/m 0,0 km/h (0 Bft) W 270 14,5 C 20,1 C 3,2 km/h (1 Bft) 100,00 %
25.06.2019 00:24 20,1 C 70 % 1020,8 hPa 0,0 l/m 0,0 km/h (0 Bft) N 0 14,5 C 20,1 C 0,0 km/h (0 Bft) 91,30 %
25.06.2019 00:23 20,1 C 70 % 1020,8 hPa 0,0 l/m 0,0 km/h (0 Bft) SW 225 14,5 C 20,1 C 1,6 km/h (1 Bft) 95,65 %
25.06.2019 00:22 20,2 C 70 % 1020,8 hPa 0,0 l/m 0,0 km/h (0 Bft) N 0 14,5 C 20,2 C 0,0 km/h (0 Bft) 95,65 %
25.06.2019 00:21 20,1 C 70 % 1020,9 hPa 0,0 l/m 1,6 km/h (1 Bft) W-SW 247 14,5 C 20,1 C 4,8 km/h (1 Bft) 95,65 %
25.06.2019 00:20 20,2 C 70 % 1020,8 hPa 0,0 l/m 1,6 km/h (1 Bft) W 270 14,5 C 20,2 C 3,2 km/h (1 Bft) 95,65 %
25.06.2019 00:19 20,2 C 70 % 1020,9 hPa 0,0 l/m 0,0 km/h (0 Bft) N 0 14,5 C 20,2 C 0,0 km/h (0 Bft) 91,30 %
25.06.2019 00:18 20,2 C 70 % 1020,9 hPa 0,0 l/m 0,0 km/h (0 Bft) N 0 14,5 C 20,2 C 0,0 km/h (0 Bft) 100,00 %
25.06.2019 00:17 20,2 C 70 % 1020,9 hPa 0,0 l/m 0,0 km/h (0 Bft) N 0 14,5 C 20,2 C 0,0 km/h (0 Bft) 91,30 %
25.06.2019 00:16 20,3 C 69 % 1020,9 hPa 0,0 l/m 0,0 km/h (0 Bft) SO 135 14,4 C 20,3 C 1,6 km/h (1 Bft) 95,65 %
25.06.2019 00:15 20,3 C 69 % 1020,9 hPa 0,0 l/m 0,0 km/h (0 Bft) N 0 14,4 C 20,3 C 0,0 km/h (0 Bft) 95,65 %
25.06.2019 00:14 20,3 C 69 % 1020,8 hPa 0,0 l/m 0,0 km/h (0 Bft) N 0 14,4 C 20,3 C 0,0 km/h (0 Bft) 91,30 %
25.06.2019 00:13 20,4 C 69 % 1020,8 hPa 0,0 l/m 0,0 km/h (0 Bft) O-SO 112 14,5 C 20,4 C 3,2 km/h (1 Bft) 95,65 %
25.06.2019 00:12 20,4 C 69 % 1020,9 hPa 0,0 l/m 1,6 km/h (1 Bft) S-SO 157 14,5 C 20,4 C 3,2 km/h (1 Bft) 91,30 %
25.06.2019 00:11 20,4 C 69 % 1020,9 hPa 0,0 l/m 0,0 km/h (0 Bft) S 180 14,5 C 20,4 C 3,2 km/h (1 Bft) 100,00 %
25.06.2019 00:10 20,4 C 69 % 1020,9 hPa 0,0 l/m 0,0 km/h (0 Bft) N 0 14,5 C 20,4 C 0,0 km/h (0 Bft) 100,00 %
25.06.2019 00:09 20,4 C 69 % 1020,9 hPa 0,0 l/m 0,0 km/h (0 Bft) O-SO 112 14,5 C 20,4 C 1,6 km/h (1 Bft) 95,65 %
25.06.2019 00:08 20,4 C 69 % 1020,9 hPa 0,0 l/m 3,2 km/h (1 Bft) O 90 14,5 C 20,4 C 4,8 km/h (1 Bft) 100,00 %
25.06.2019 00:07 20,4 C 69 % 1020,8 hPa 0,0 l/m 0,0 km/h (0 Bft) SO 135 14,5 C 20,4 C 3,2 km/h (1 Bft) 91,30 %
25.06.2019 00:06 20,5 C 69 % 1020,9 hPa 0,0 l/m 0,0 km/h (0 Bft) S 180 14,6 C 20,5 C 3,2 km/h (1 Bft) 95,65 %
25.06.2019 00:05 20,6 C 69 % 1020,9 hPa 0,0 l/m 0,0 km/h (0 Bft) O-SO 112 14,7 C 20,6 C 1,6 km/h (1 Bft) 95,65 %
25.06.2019 00:04 20,6 C 69 % 1020,9 hPa 0,0 l/m 3,2 km/h (1 Bft) O-SO 112 14,7 C 20,6 C 4,8 km/h (1 Bft) 100,00 %
25.06.2019 00:03 20,6 C 69 % 1020,9 hPa 0,0 l/m 1,6 km/h (1 Bft) O-SO 112 14,7 C 20,6 C 4,8 km/h (1 Bft) 95,65 %
25.06.2019 00:02 20,6 C 69 % 1020,9 hPa 0,0 l/m 1,6 km/h (1 Bft) O 90 14,7 C 20,6 C 3,2 km/h (1 Bft) 91,30 %
25.06.2019 00:01 20,6 C 68 % 1020,9 hPa 0,0 l/m 1,6 km/h (1 Bft) SO 135 14,5 C 20,6 C 3,2 km/h (1 Bft) 95,65 %
25.06.2019 00:00 20,6 C 69 % 1020,9 hPa 0,0 l/m 0,0 km/h (0 Bft) O 90 14,7 C 20,6 C 1,6 km/h (1 Bft) 100,00 %
_ Min-Zeit 04:46 00:01 04:42 - 00:00 - - 05:02 04:46 00:10 05:37
Minimum _ 17,5 C 68 % 1019,4 hPa - 0,0 km/h (0 Bft) - - 14,1 C 17,5 C 0,0 km/h (0 Bft) 86,96 %
_ Max-Zeit 00:00 06:08 00:00 00:00 05:24 - - 06:19 00:00 05:32 00:00
Maximum _ 20,6 C 82 % 1020,9 hPa 0,0 l/m 4,8 km/h
O-SO (1 Bft)
- - 14,8 C 20,6 C 9,7 km/h
O-SO (2 Bft)
100,00 %
Durchschnitt _ 18,6 C 77 % 1020,1 hPa #0,0 l/m 0,5 km/h (0 Bft) O - 14,5 C 18,6 C 1,7 km/h (1 Bft) 96,18 %